Terminal Aerodrome Forecast
Issued by NWS

Home | Current Version | Previous Version | Text Only | Print | Product List | Glossary On
Versions: 1 2 3 4 5 6 7 8 9 10 11 12 13 14 15 16 17 18 19 20 21 22 23 24 25 26 27 28 29 30 31 32 33 34 35 36 37 38 39 40 41 42 43 44 45 46 47 48 49 50
000
FTUS44 KHGX 221834 AAO
TAFIAH
TAF AMD
KIAH 221834Z 2219/2324 10005KT P6SM SCT030 BKN040
     FM222100 15007KT P6SM SCT035
     FM230900 VRB03KT 3SM BR SCT004 BKN010
     FM231200 VRB03KT 2SM BR OVC004
     FM231500 11004KT 3SM BR SCT005 BKN015
     FM231700 01004KT P6SM SCT015 BKN035=

USA.gov is the U.S. government's official web portal to all federal, state and local government web resources and services.